Cisco Butte, California Weather observations

Data are for observation ending at time listed.
 Day   Time    Ave.   Ave.  Ave.  Vector   Max.   Stn.    Total    Solar   Ave.   Snow 
  of    of     Air    Rel.  Wind   Wind    Wind   Baro.  Precip.   Rad.    Soil   Depth
Year   Day     Temp.  Hum.  Speed  Dir.    Gust   Pres.                    Temp.       
2016   (PST)    F      %     mph   deg.    mph     mb.     in.     W/m2     F      in. 
---------------------------------------------------------------------------------------  
 341    5:50   22.0    88    3.4   270      5.8   817.0    0.00       0    -14710.0  159.6
 341    6:00   21.7    90    4.7   249      7.5   817.0    0.00       0    -14710.0  159.6
 341    6:10   22.1    92    4.4   260      7.3   817.0    0.00       0    -14710.0  159.6
 341    6:20   22.4    91    5.0   261     10.3   817.0    0.00       0    -14710.0  159.6
 341    6:30   22.3    91    5.3   261      8.6   817.0    0.00       0    -14710.0  159.6
 341    6:40   22.4    90    5.2   244      9.4   817.0    0.00       0    -14710.0  159.6
 341    6:50   22.2    90    5.1   253      9.9   817.0    0.00       0    -14710.0  159.6
 341    7:00   22.3    89    4.0   241      8.6   817.0    0.00       0    -14710.0  159.6
 341    7:10   22.4    88    5.5   247     12.4   817.0    0.00       1    -14710.0  159.6
 341    7:20   22.5    87    5.5   261     11.2   817.0    0.00       2    -14710.0  159.6
 341    7:30   22.3    88    3.8   266      7.0   817.0    0.00       4    -14710.0  159.6
 341    7:40   22.8    86    6.6   277     11.3   817.0    0.00      12    -14710.0  159.7
 341    7:50   22.9    88    2.5   271      7.2   817.0    0.00      13    -14710.0  159.6
 341    8:00   22.9    89    4.6   277      8.3   817.0    0.00      15    -14710.0  159.6
 341    8:10   23.2    87    5.8   255     10.2   817.0    0.00      32    -14710.0  159.6
 341    8:20   23.6    86    5.1   266      9.6   817.0    0.00      34    -14710.0  159.6
 341    8:30   23.4    84    7.0   264     12.5   817.0    0.00      23    -14710.0  159.6
 341    8:40   23.7    84    4.5   262      9.1   817.0    0.00      38    -14710.0  159.6
 341    8:50   24.4    82    6.4   270     10.8   817.0    0.00      75    -14710.0  159.5
 341    9:00   24.5    82    5.2   265      9.8   817.0    0.00      62    -14710.0  159.5
 341    9:10   24.9    82    5.0   262      9.5   817.0    0.00      89    -14710.0  159.5
 341    9:20   25.3    82    6.8   270     12.3   817.0    0.00      85    -14710.0  159.5
 341    9:30   24.6    82    8.4   270     14.8   817.0    0.00      51    -14710.0  159.5
 341    9:40   25.1    80    8.1   270     12.7   817.0    0.00      95    -14710.0  159.4
 341    9:50   24.5    80    9.2   269     16.8   818.0    0.00      62    -14710.0  159.4
 341   10:00   24.6    79    8.7   269     14.8   818.0    0.00      66    -14710.0  159.4
 341   10:10   24.8    80    6.9   260     10.1   817.0    0.00      63    -14710.0  159.4
 341   10:20   24.8    78   10.7   273     16.3   817.0    0.00      64    -14710.0  159.4
 341   10:30   24.7    78   10.8   264     20.0   817.0    0.00      89    -14710.0  159.5
 341   10:40   25.4    78    9.4   267     16.7   817.0    0.00      81    -14710.0  159.5
 341   10:50   25.0    82   10.8   268     18.1   817.0    0.00      77    -14710.0  159.4
 341   11:00   25.8    77   13.1   265     19.9   817.0    0.00     145    -14710.0  159.4
 341   11:10   25.4    79   11.6   268     18.3   817.0    0.00      86    -14710.0  159.5
 341   11:20   25.3    79   11.5   265     16.7   817.0    0.00      76    -14710.0  159.4
 341   11:30   25.6    82   11.2   267     18.9   817.0    0.00     201    -14710.0  159.5
 341   11:40   26.9    77   13.0   262     22.9   817.0    0.00     138    -14710.0  159.3
 341   11:50   25.5    80   10.6   262     16.3   817.0    0.00      75    -14710.0  159.5
 341   12:00   26.0    79   12.5   260     19.1   817.0    0.00     154    -14710.0  159.5
 341   12:10   26.1    78   10.2   272     17.3   817.0    0.00      92    -14710.0  159.4
 341   12:20   26.0    80   12.4   277     19.7   817.0    0.00     121    -14710.0  159.4
 341   12:30   25.9    82   12.2   275     18.0   817.0    0.00      95    -14710.0  159.5
 341   12:40   25.2    85   10.0   271     16.0   817.0    0.00      54    -14710.0  159.5
 341   12:50   25.5    84   11.2   271     17.8   817.0    0.00      96    -14710.0  159.5
 341   13:00   25.8    79   11.5   269     16.4   817.0    0.00     142    -14710.0  159.4
 341   13:10   26.0    80   12.2   267     19.0   817.0    0.00      92    -14710.0  159.5
 341   13:20   25.4    79   14.1   274     22.5   817.0    0.00      55    -14710.0  159.5
 341   13:30   25.4    81   12.1   268     18.4   817.0    0.00     119    -14710.0  159.5
 341   13:40   26.7    78   13.0   264     19.6   817.0    0.00     311    -14710.0  159.3
 341   13:50   27.9    76   12.1   258     18.9   817.0    0.00     331    -14710.0  159.3
 341   14:00   27.6    76   12.5   259     19.7   817.0    0.00     271    -14710.0  159.3
 341   14:10   27.2    74   13.7   263     19.5   817.0    0.00     220    -14710.0  159.1
 341   14:20   26.4    77   12.9   264     18.4   817.0    0.00      91    -14710.0  159.3
 341   14:30   25.8    79   14.0   265     18.9   817.0    0.00      99    -14710.0  159.5
 341   14:40   25.9    78   12.6   264     18.8   817.0    0.00     108    -14710.0  159.5
 341   14:50   25.2    81   13.3   264     19.1   817.0    0.00      70    -14710.0  159.5
 341   15:00   24.6    83   12.2   263     17.9   817.0    0.00      43    -14710.0  159.5
 341   15:10   24.4    83   11.6   259     17.6   817.0    0.00      34    -14710.0  159.5
 341   15:20   24.3    83   11.5   266     18.1   817.0    0.00      28    -14710.0  159.5
 341   15:30   24.3    84    8.4   266     14.0   817.0    0.00      17    -14710.0  159.5
 341   15:40   24.2    85    8.9   264     12.9   817.0    0.00      11    -14710.0  159.6
 341   15:50   24.0    89    6.7   278      9.6   817.0    0.00       9    -14710.0  159.6
 341   16:00   23.8    89   11.8   276     18.2   817.0    0.00      37    -14710.0  159.5
 341   16:10   23.9    87    7.5   262     12.3   817.0    0.00      16    -14710.0  159.6
 341   16:20   23.5    89    7.7   261     12.8   817.0    0.00       5    -14710.0  159.7
 341   16:30   23.3    90    8.1   267     13.5   817.0    0.00       2    -14710.0  159.6
 341   16:40   22.9    89    8.5   266     14.4   817.0    0.00       1    -14710.0  159.6
 341   16:50   22.8    89    6.4   271     11.8   818.0    0.00       0    -14710.0  159.6
 341   17:00   22.8    90    7.8   277     12.2   818.0    0.00       0    -14710.0  159.6
 341   17:10   22.7    89    8.6   274     11.7   818.0    0.00       0    -14710.0  159.6
 341   17:20   22.6    89    6.1   275      8.8   818.0    0.00       0    -14710.0  159.6
 341   17:30   22.7    89    5.7   273      9.6   818.0    0.00       0    -14710.0  159.7
 341   17:40   22.6    91    6.7   283     11.7   818.0    0.00       0    -14710.0  159.6
 341   17:50   22.4    94    6.1   274     10.7   818.0    0.00       0    -14710.0  159.6
 341   18:00   22.3    95    8.2   285     12.1   818.0    0.00       0    -14710.0  159.6
 341   18:10   22.1    94    7.5   281     10.3   818.0    0.00       0    -14710.0  159.6
 341   18:20   22.0    94    6.3   280      9.4   818.0    0.00       0    -14710.0  159.6
 341   18:30   22.0    94    5.3   270      7.3   818.0    0.00       0    -14710.0  159.6
 341   18:40   21.9    94    4.0   268      6.1   818.0    0.00       0    -14710.0  159.6
 341   18:50   21.9    94    2.1   261      5.3   818.0    0.00       0    -14710.0  159.6
 341   19:00   21.9    94    1.3   248      2.8   818.0    0.00       0    -14710.0  159.6
 341   19:10   22.0    94    0.9   233      3.0   818.0    0.00       0    -14710.0  159.6
 341   19:20   22.1    93    1.4   107      2.9   818.0    0.00       0    -14710.0  159.6
 341   19:30   22.1    93    2.0   288      4.6   818.0    0.00       0    -14710.0  159.6
 341   19:40   22.1    94    3.3   282      4.7   819.0    0.00       0    -14710.0  159.6
 341   19:50   22.2    94    3.4   276      4.8   819.0    0.00       0    -14710.0  159.6
 341   20:00   22.1    94    2.9   250      5.0   819.0    0.00       0    -14710.0  159.6
 341   20:10   22.1    94    4.4   272      6.7   819.0    0.00       0    -14710.0  159.6
 341   20:20   22.0    93    1.9   277      6.1   819.0    0.00       0    -14710.0  159.6
 341   20:30   22.1    93    0.5   107      1.9   819.0    0.00       0    -14710.0  159.6
 341   20:40   22.1    94    2.1   266      5.7   819.0    0.00       0    -14710.0  159.6
 341   20:50   21.9    94    2.0   271      4.0   819.0    0.00       0    -14710.0  159.6
 341   21:00   21.9    94    1.8   288      3.5   819.0    0.00       0    -14710.0  159.6
 341   21:10   21.9    94    1.7   293      3.1   819.0    0.00       0    -14710.0  159.6
 341   21:20   21.8    94    0.0     0      0.0   819.0    0.00       0    -14710.0  159.6
 341   21:30   21.8    94    0.1   321      0.7   819.0    0.00       0    -14710.0  159.6
 341   21:40   21.8    94    0.0   320      0.4   819.0    0.00       0    -14710.0  159.6
 341   21:50   21.8    94    0.3   350      1.3   819.0    0.00       0    -14710.0  159.6
 341   22:00   21.8    94    0.2    29      1.5   819.0    0.00       0    -14710.0  159.6
 341   22:10   21.8    93    0.9    80      1.9   819.0    0.00       0    -14710.0  159.6
 341   22:20   21.8    93    0.2   106      1.3   820.0    0.00       0    -14710.0  159.6
 341   22:30   21.9    92    1.1   103      1.6   820.0    0.00       0    -14710.0  159.6
 341   22:40   21.9    92    0.4    71      1.1   820.0    0.00       0    -14710.0  159.6
 341   22:50   21.9    91    2.2    86      3.5   820.0    0.00       0    -14710.0  159.6
 341   23:00   21.6    92    2.3    66      3.0   820.0    0.00       0    -14710.0  159.6
 341   23:10   21.2    92    3.2    87      4.1   820.0    0.00       0    -14710.0  159.6
 341   23:20   20.9    94    5.0   100      7.1   820.0    0.00       0    -14710.0  159.6
 341   23:30   20.5    93    5.1   104      6.8   820.0    0.00       0    -14710.0  159.6
 341   23:40   19.9    91    7.2    96     10.3   820.0    0.00       0    -14710.0  159.6
 341   23:50   19.4    88    6.8   100      9.6   820.0    0.00       0    -14710.0  159.6
 342    0:00   19.1    88    7.4   103      9.9   820.0    0.00       0    -14710.0  159.6
 342    0:10   19.0    88    8.7   103     12.6   820.0    0.00       0    -14710.0  159.6
 342    0:20   19.2    86    8.7   103     12.0   820.0    0.00       0    -14710.0  159.7
 342    0:30   19.0    86   11.1   102     16.4   820.0    0.00       0    -14710.0  159.7
 342    0:40   18.7    86   11.2   100     15.3   820.0    0.00       0    -14710.0  159.7
 342    0:50   18.5    84   12.1   105     16.1   820.0    0.00       0    -14710.0  159.7
 342    1:00   18.4    82   13.0   107     17.0   820.0    0.00       0    -14710.0  159.6
 342    1:10   18.4    81   14.3   104     19.5   820.0    0.00       0    -14710.0  159.7
 342    1:20   18.5    81   15.4    99     22.6   820.0    0.00       0    -14710.0  159.7
 342    1:30   18.5    80   15.8    97     20.3   820.0    0.00       0    -14710.0  159.7
 342    1:40   18.6    80   16.7   100     22.2   820.0    0.00       0    -14710.0  159.7
 342    1:50   18.5    80   17.4    96     22.5   820.0    0.00       0    -14710.0  159.7
 342    2:00   18.4    81   18.0   100     23.2   820.0    0.00       0    -14710.0  159.7
 342    2:10   18.2    81   17.0   104     22.2   820.0    0.00       0    -14710.0  159.7
 342    2:20   18.0    81   16.5   100     22.2   820.0    0.00       0    -14710.0  159.8
 342    2:30   17.9    81   15.4   102     22.6   820.0    0.00       0    -14710.0  159.7
 342    2:40   17.9    80   15.9   101     21.3   820.0    0.00       0    -14710.0  159.7
 342    2:50   17.7    80   16.0   103     22.5   820.0    0.00       0    -14710.0  159.8
 342    3:00   17.5    80   15.3    97     21.5   820.0    0.00       0    -14710.0  159.8
 342    3:10   17.5    80   15.2    99     20.4   820.0    0.00       0    -14710.0  159.7
 342    3:20   17.4    80   15.3    99     20.2   820.0    0.00       0    -14710.0  159.8
 342    3:30   17.5    80   15.5    96     21.3   820.0    0.00       0    -14710.0  159.8
 342    3:40   17.2    80   13.5    97     18.4   820.0    0.00       0    -14710.0  159.8
 342    3:50   17.1    80   13.2    99     18.9   820.0    0.00       0    -14710.0  159.8
 342    4:00   17.0    80   12.8   101     17.0   820.0    0.00       0    -14710.0  159.8
 342    4:10   17.0    80   12.5    99     16.5   820.0    0.00       0    -14710.0  159.8
 342    4:20   16.9    80   12.2   102     17.9   820.0    0.00       0    -14710.0  159.8
 342    4:30   16.7    80   11.4   106     15.5   820.0    0.00       0    -14710.0  159.8
 342    4:40   16.5    81   11.6   109     16.3   820.0    0.00       0    -14710.0  159.8
 342    4:50   16.4    81   11.7   111     17.0   820.0    0.00       0    -14710.0  159.8
 342    5:00   16.4    81   12.3   112     17.0   820.0    0.00       0    -14710.0  159.8
 342    5:10   16.4    81   12.3   110     16.0   820.0    0.00       0    -14710.0  159.8
 342    5:20   16.2    81   11.8   108     16.0   820.0    0.00       0    -14710.0  159.8
 342    5:30   16.3    80   11.7   105     15.3   820.0    0.00       0    -14710.0  159.8
 342    5:40   16.3    80   11.9   106     16.1   820.0    0.00       0    -14710.0  159.8

Return to Cisco Butte graphs page.


Western Regional Climate Center,wrcc@dri.edu